Time;durP1;ratioP1;P1;durP2;ratioP2;P2;SDS_P1;SDS_P2;PMS_P1;PMS_P2;Temp;Humidity;BMP_temperature;BMP_pressure;BME280_temperature;BME280_humidity;BME280_pressure;Samples;Min_cycle;Max_cycle;Signal;HPM_P1;HPM_P2
2021/04/20 00:00:41;;;;;;;;;;;;;;;9.81;36.91;101999.34;5042035;28;19912;-73
2021/04/20 00:03:06;;;;;;;;;;;;;;;9.77;37.09;101997.13;5045318;28;19952;-73
2021/04/20 00:05:32;;;;;;;;;;;;;;;9.74;37.30;101994.88;5050541;28;20397;-73
2021/04/20 00:07:57;;;;;;;;;;;;;;;9.71;37.54;101995.34;5043059;28;20259;-73
2021/04/20 00:10:23;;;;;;;;;;;;;;;9.68;37.50;101998.53;5040992;28;20241;-73
2021/04/20 00:12:49;;;;;;;;;;;;;;;9.65;37.20;101990.00;5036416;28;19908;-73
2021/04/20 00:15:18;;;;;;;;;;;;;;;9.62;37.08;101987.78;5041331;28;19923;-72
2021/04/20 00:17:44;;;;;;;;;;;;;;;9.59;36.98;101989.06;5042700;28;19920;-72
2021/04/20 00:20:11;;;;;;;;;;;;;;;9.54;37.29;101986.22;5040789;28;20369;-72
2021/04/20 00:22:37;;;;;;;;;;;;;;;9.51;37.23;101981.25;5048749;28;19947;-72
2021/04/20 00:25:02;;;;;;;;;;;;;;;9.48;37.30;101985.28;5043926;28;19917;-72
2021/04/20 00:27:28;;;;;;;;;;;;;;;9.44;37.69;101977.81;5040053;28;20019;-72
2021/04/20 00:29:54;;;;;;;;;;;;;;;9.42;37.65;101977.25;5040621;28;20000;-72
2021/04/20 00:32:19;;;;;;;;;;;;;;;9.36;37.56;101976.31;5043400;28;20389;-72
2021/04/20 00:34:44;;;;;;;;;;;;;;;9.33;37.47;101977.59;5036329;28;19913;-73
2021/04/20 00:37:10;;;;;;;;;;;;;;;9.30;37.35;101971.78;5037659;28;20426;-72
2021/04/20 00:39:35;;;;;;;;;;;;;;;9.27;37.58;101973.09;5041465;28;19935;-72
2021/04/20 00:42:07;;;;;;;;;;;;;;;9.23;37.78;101966.47;5047818;28;19919;-72
2021/04/20 00:44:32;;;;;;;;;;;;;;;9.19;37.73;101965.25;5070140;28;19931;-72
2021/04/20 00:46:58;;;;;;;;;;;;;;;9.16;37.80;101971.19;5046804;28;19913;-73
2021/04/20 00:49:23;;;;;;;;;;;;;;;9.13;37.59;101968.13;5042324;28;19921;-72
2021/04/20 00:51:50;;;;;;;;;;;;;;;9.09;38.01;101965.88;5051529;28;19995;-72
2021/04/20 00:54:15;;;;;;;;;;;;;;;9.06;37.94;101968.22;5082827;28;19999;-72
2021/04/20 00:56:40;;;;;;;;;;;;;;;9.02;38.10;101964.31;5043500;28;19996;-72
2021/04/20 00:59:05;;;;;;;;;;;;;;;8.97;37.79;101961.47;5035413;28;19920;-72
2021/04/20 01:01:31;;;;;;;;;;;;;;;8.93;37.99;101960.28;5042660;28;19999;-71
2021/04/20 01:03:57;;;;;;;;;;;;;;;8.89;38.08;101963.47;5048239;28;19920;-73
2021/04/20 01:06:22;;;;;;;;;;;;;;;8.88;38.34;101966.41;5041802;28;19913;-72
2021/04/20 01:08:47;;;;;;;;;;;;;;;8.84;38.34;101957.09;5038852;28;19912;-72
2021/04/20 01:11:12;;;;;;;;;;;;;;;8.79;38.46;101960.50;5039430;28;19948;-72
2021/04/20 01:13:38;;;;;;;;;;;;;;;8.77;38.54;101962.59;5064471;28;19952;-72
2021/04/20 01:16:03;;;;;;;;;;;;;;;8.72;38.95;101970.63;5044581;28;19913;-72
2021/04/20 01:18:29;;;;;;;;;;;;;;;8.68;38.72;101966.72;5043038;28;20391;-71
2021/04/20 01:20:59;;;;;;;;;;;;;;;8.64;38.66;101958.19;5069553;28;19923;-72
2021/04/20 01:23:33;;;;;;;;;;;;;;;8.61;38.53;101963.28;5034987;28;19925;-72
2021/04/20 01:25:58;;;;;;;;;;;;;;;8.59;38.76;101959.94;5050812;28;19913;-73
2021/04/20 01:28:24;;;;;;;;;;;;;;;8.55;38.67;101958.78;5047168;28;19924;-73
2021/04/20 01:30:49;;;;;;;;;;;;;;;8.50;38.93;101950.47;5075344;28;19920;-72
2021/04/20 01:33:14;;;;;;;;;;;;;;;8.47;38.96;101953.66;5047556;28;19967;-73
2021/04/20 01:35:39;;;;;;;;;;;;;;;8.43;39.14;101956.03;5065275;28;20394;-73
2021/04/20 01:38:05;;;;;;;;;;;;;;;8.39;39.13;101950.19;5067128;28;19919;-72
2021/04/20 01:40:31;;;;;;;;;;;;;;;8.35;38.94;101948.97;5032012;28;20002;-72
2021/04/20 01:42:57;;;;;;;;;;;;;;;8.31;39.05;101945.06;5041720;28;20058;-72
2021/04/20 01:45:23;;;;;;;;;;;;;;;8.29;38.88;101954.50;5033930;28;19913;-72
2021/04/20 01:47:49;;;;;;;;;;;;;;;8.25;39.17;101945.16;5063924;28;20381;-72
2021/04/20 01:50:14;;;;;;;;;;;;;;;8.21;39.16;101948.34;5044560;28;20507;-72
2021/04/20 01:52:40;;;;;;;;;;;;;;;8.17;39.29;101943.59;5074120;28;19913;-73
2021/04/20 01:55:06;;;;;;;;;;;;;;;8.12;39.29;101941.53;5046960;28;19962;-73
2021/04/20 01:57:31;;;;;;;;;;;;;;;8.08;39.25;101944.97;5038510;28;19921;-72
2021/04/20 01:59:56;;;;;;;;;;;;;;;8.02;38.98;101944.00;5066690;28;20103;-73
2021/04/20 02:02:21;;;;;;;;;;;;;;;7.98;39.03;101940.06;5036288;28;19913;-73
2021/04/20 02:04:47;;;;;;;;;;;;;;;7.94;39.04;101939.69;5072844;28;19940;-73
2021/04/20 02:07:12;;;;;;;;;;;;;;;7.92;39.18;101939.09;5049408;28;20365;-72
2021/04/20 02:09:38;;;;;;;;;;;;;;;7.90;39.25;101938.47;5034267;28;19956;-72
2021/04/20 02:12:03;;;;;;;;;;;;;;;7.86;39.08;101942.72;5070512;28;19913;-72
2021/04/20 02:14:28;;;;;;;;;;;;;;;7.83;39.26;101937.75;5035370;28;19917;-72
2021/04/20 02:16:54;;;;;;;;;;;;;;;7.82;39.24;101937.97;5040900;28;20388;-73
2021/04/20 02:19:20;;;;;;;;;;;;;;;7.81;39.25;101934.44;5047765;28;19913;-73
2021/04/20 02:21:45;;;;;;;;;;;;;;;7.79;39.51;101931.91;5070978;28;20123;-72
2021/04/20 02:24:13;;;;;;;;;;;;;;;7.79;39.38;101936.53;5070370;28;19913;-72
2021/04/20 02:26:38;;;;;;;;;;;;;;;7.78;39.65;101922.13;5036939;28;19917;-73
2021/04/20 02:29:04;;;;;;;;;;;;;;;7.77;39.40;101930.50;5052028;28;19923;-72
2021/04/20 02:31:34;;;;;;;;;;;;;;;7.74;39.61;101930.94;5049114;28;19912;-73
2021/04/20 02:34:02;;;;;;;;;;;;;;;7.71;39.47;101925.97;5043687;28;19921;-73
2021/04/20 02:36:27;;;;;;;;;;;;;;;7.67;39.54;101925.59;5078834;28;19924;-73
2021/04/20 02:38:52;;;;;;;;;;;;;;;7.64;39.94;101925.22;5079235;28;20274;-73
2021/04/20 02:41:18;;;;;;;;;;;;;;;7.61;39.86;101925.66;5040474;28;19915;-73
2021/04/20 02:43:44;;;;;;;;;;;;;;;7.57;39.65;101931.53;5047168;28;20430;-72
2021/04/20 02:46:09;;;;;;;;;;;;;;;7.54;39.63;101926.56;5034836;28;19909;-73
2021/04/20 02:48:34;;;;;;;;;;;;;;;7.51;39.54;101932.47;5041374;28;20375;-73
2021/04/20 02:50:59;;;;;;;;;;;;;;;7.47;39.58;101928.53;5067197;28;19913;-72
2021/04/20 02:53:25;;;;;;;;;;;;;;;7.42;39.62;101925.69;5077277;28;20404;-72
2021/04/20 02:55:50;;;;;;;;;;;;;;;7.36;39.61;101923.84;5072021;28;19936;-72
2021/04/20 02:58:16;;;;;;;;;;;;;;;7.30;39.70;101924.75;5041821;28;19917;-72
2021/04/20 03:00:42;;;;;;;;;;;;;;;7.26;39.49;101915.41;5036061;28;20002;-72
2021/04/20 03:03:07;;;;;;;;;;;;;;;7.20;39.50;101916.28;5070983;28;19999;-72
2021/04/20 03:05:33;;;;;;;;;;;;;;;7.14;39.66;101914.47;5040490;28;20000;-72
2021/04/20 03:07:58;;;;;;;;;;;;;;;7.09;39.46;101912.41;5066840;28;19913;-72
2021/04/20 03:10:23;;;;;;;;;;;;;;;7.03;39.60;101907.88;5072618;28;19919;-71
2021/04/20 03:12:49;;;;;;;;;;;;;;;6.98;39.70;101911.25;5046589;28;19977;-72
2021/04/20 03:15:15;;;;;;;;;;;;;;;6.93;39.55;101913.84;5043599;28;20051;-72
2021/04/20 03:17:41;;;;;;;;;;;;;;;6.87;39.63;101907.41;5066405;28;20007;-73
2021/04/20 03:20:09;;;;;;;;;;;;;;;6.84;39.57;101909.72;5049682;28;20374;-73
2021/04/20 03:22:34;;;;;;;;;;;;;;;6.78;39.46;101905.19;5050648;28;19939;-72
2021/04/20 03:25:06;;;;;;;;;;;;;;;6.72;39.63;101904.19;5035877;28;20386;-72
2021/04/20 03:27:31;;;;;;;;;;;;;;;6.66;39.52;101899.66;5035920;28;19987;-72
2021/04/20 03:29:57;;;;;;;;;;;;;;;6.59;39.69;101902.41;5065844;28;20320;-73
2021/04/20 03:32:22;;;;;;;;;;;;;;;6.52;39.60;101895.38;5066851;28;20007;-73
2021/04/20 03:34:52;;;;;;;;;;;;;;;6.46;39.70;101888.94;5039193;28;19925;-73
2021/04/20 03:37:21;;;;;;;;;;;;;;;6.40;39.84;101884.41;5066047;28;20300;-72
2021/04/20 03:39:46;;;;;;;;;;;;;;;6.36;39.74;101885.91;5050526;28;19913;-72
2021/04/20 03:42:16;;;;;;;;;;;;;;;6.31;39.75;101883.84;5080045;28;20035;-72
2021/04/20 03:44:45;;;;;;;;;;;;;;;6.27;39.93;101887.22;5039665;28;19913;-72
2021/04/20 03:47:14;;;;;;;;;;;;;;;6.22;39.61;101894.13;5065940;28;20325;-72
2021/04/20 03:49:40;;;;;;;;;;;;;;;6.16;39.82;101884.13;5049115;28;20268;-72
2021/04/20 03:52:11;;;;;;;;;;;;;;;6.11;39.75;101889.41;5047434;28;19967;-72
2021/04/20 03:54:36;;;;;;;;;;;;;;;6.07;39.95;101888.16;5065271;28;19917;-72
2021/04/20 03:57:02;;;;;;;;;;;;;;;6.03;39.61;101880.69;5036208;28;19935;-72
2021/04/20 03:59:27;;;;;;;;;;;;;;;5.97;40.09;101882.38;5065194;28;19928;-72
2021/04/20 04:01:52;;;;;;;;;;;;;;;5.94;39.93;101890.94;5074153;28;19935;-72
2021/04/20 04:04:18;;;;;;;;;;;;;;;5.91;39.83;101883.22;5066856;28;19920;-72
2021/04/20 04:06:44;;;;;;;;;;;;;;;5.88;40.16;101880.94;5048792;28;19913;-72
2021/04/20 04:09:09;;;;;;;;;;;;;;;5.89;40.03;101874.47;5069982;28;19963;-72
2021/04/20 04:11:36;;;;;;;;;;;;;;;5.90;39.99;101878.84;5044222;28;20284;-73
2021/04/20 04:14:02;;;;;;;;;;;;;;;5.90;39.79;101881.56;5048347;28;19916;-72
2021/04/20 04:16:28;;;;;;;;;;;;;;;5.92;39.82;101879.44;5078560;28;20266;-72
2021/04/20 04:18:54;;;;;;;;;;;;;;;5.95;39.87;101876.38;5047882;28;19966;-72
2021/04/20 04:21:21;;;;;;;;;;;;;;;5.96;39.59;101869.91;5077869;28;20091;-72
2021/04/20 04:23:46;;;;;;;;;;;;;;;5.99;39.71;101869.47;5049363;28;20263;-72
2021/04/20 04:26:15;;;;;;;;;;;;;;;6.02;39.76;101862.78;5045937;28;19920;-72
2021/04/20 04:28:42;;;;;;;;;;;;;;;6.04;39.65;101861.53;5047613;28;20003;-72
2021/04/20 04:31:07;;;;;;;;;;;;;;;6.11;39.76;101851.50;5071383;28;19920;-72
2021/04/20 04:33:33;;;;;;;;;;;;;;;6.15;39.83;101854.59;5046085;28;20128;-72
2021/04/20 04:35:58;;;;;;;;;;;;;;;6.20;39.83;101860.19;5049655;28;19921;-72
2021/04/20 04:38:23;;;;;;;;;;;;;;;6.25;39.75;101852.25;5075989;28;19974;-72
2021/04/20 04:40:49;;;;;;;;;;;;;;;6.27;39.48;101860.94;5073131;28;20326;-72
2021/04/20 04:43:14;;;;;;;;;;;;;;;6.33;39.41;101853.81;5056477;28;20057;-72
2021/04/20 04:45:39;;;;;;;;;;;;;;;6.38;39.85;101862.97;5047928;28;19913;-72
2021/04/20 04:48:05;;;;;;;;;;;;;;;6.47;39.61;101863.53;5051052;28;19924;-72
2021/04/20 04:50:30;;;;;;;;;;;;;;;6.55;39.88;101859.72;5032474;28;20282;-71
2021/04/20 04:52:56;;;;;;;;;;;;;;;6.64;39.94;101861.94;5050047;28;19913;-73
2021/04/20 04:55:21;;;;;;;;;;;;;;;6.73;39.89;101854.34;5050220;28;20378;-72
2021/04/20 04:57:46;;;;;;;;;;;;;;;6.83;39.94;101853.84;5072858;28;19927;-72
2021/04/20 05:00:12;;;;;;;;;;;;;;;6.89;40.28;101852.97;5077330;28;20016;-72
2021/04/20 05:02:38;;;;;;;;;;;;;;;6.94;40.12;101855.00;5046157;28;19921;-72
2021/04/20 05:05:05;;;;;;;;;;;;;;;7.00;40.23;101852.22;5046918;28;20362;-72
2021/04/20 05:07:30;;;;;;;;;;;;;;;7.06;40.23;101848.59;5047425;28;19924;-72
2021/04/20 05:09:59;;;;;;;;;;;;;;;7.14;40.44;101852.91;5073829;28;19912;-73
2021/04/20 05:12:25;;;;;;;;;;;;;;;7.21;40.48;101844.72;5041747;28;20000;-72
2021/04/20 05:14:50;;;;;;;;;;;;;;;7.27;40.46;101846.53;5038150;28;20019;-72
2021/04/20 05:17:15;;;;;;;;;;;;;;;7.29;40.50;101836.28;5045160;28;20385;-73
2021/04/20 05:19:41;;;;;;;;;;;;;;;7.38;40.45;101844.94;5045845;28;19917;-73
2021/04/20 05:22:06;;;;;;;;;;;;;;;7.47;40.45;101841.69;5033685;28;19912;-73
2021/04/20 05:24:32;;;;;;;;;;;;;;;7.52;40.73;101839.13;5042356;28;20069;-72
2021/04/20 05:26:57;;;;;;;;;;;;;;;7.57;40.83;101833.03;5038232;28;20051;-72
2021/04/20 05:29:22;;;;;;;;;;;;;;;7.66;40.69;101831.66;5045834;28;20415;-72
2021/04/20 05:31:48;;;;;;;;;;;;;;;7.71;40.94;101825.53;5064932;28;20071;-73
2021/04/20 05:34:14;;;;;;;;;;;;;;;7.77;41.01;101832.75;5038485;28;20358;-73
2021/04/20 05:36:40;;;;;;;;;;;;;;;7.81;40.96;101827.72;5044355;28;19921;-73
2021/04/20 05:39:09;;;;;;;;;;;;;;;7.89;40.89;101824.69;5048643;28;20008;-72
2021/04/20 05:41:35;;;;;;;;;;;;;;;7.96;40.77;101825.41;5049981;28;19912;-73
2021/04/20 05:44:00;;;;;;;;;;;;;;;8.00;40.95;101818.47;5049160;28;20285;-73
2021/04/20 05:46:26;;;;;;;;;;;;;;;8.08;40.86;101811.88;5048930;28;20402;-73
2021/04/20 05:48:51;;;;;;;;;;;;;;;8.15;40.66;101823.44;5046782;28;20547;-73
2021/04/20 05:51:17;;;;;;;;;;;;;;;8.20;40.77;101821.69;5027620;28;19943;-73
2021/04/20 05:53:42;;;;;;;;;;;;;;;8.27;40.65;101813.47;5044093;28;19976;-73
2021/04/20 05:56:07;;;;;;;;;;;;;;;8.32;40.73;101818.16;5076709;28;19908;-72
2021/04/20 05:58:33;;;;;;;;;;;;;;;8.36;41.07;101814.75;5052433;28;19939;-73
2021/04/20 06:00:59;;;;;;;;;;;;;;;8.44;41.02;101821.78;5051758;28;19912;-73
2021/04/20 06:03:24;;;;;;;;;;;;;;;8.50;40.92;101820.03;5035756;28;19913;-73
2021/04/20 06:05:49;;;;;;;;;;;;;;;8.53;40.57;101814.94;5049732;28;19967;-72
2021/04/20 06:08:14;;;;;;;;;;;;;;;8.61;40.77;101808.31;5086674;28;19913;-72
2021/04/20 06:10:40;;;;;;;;;;;;;;;8.65;40.65;101807.63;5054000;28;19944;-73
2021/04/20 06:13:05;;;;;;;;;;;;;;;8.70;40.99;101809.63;5052488;28;19984;-73
2021/04/20 06:15:31;;;;;;;;;;;;;;;8.75;40.96;101808.91;5084601;28;19912;-72
2021/04/20 06:17:57;;;;;;;;;;;;;;;8.79;40.92;101813.66;5051466;28;19920;-71
2021/04/20 06:20:22;;;;;;;;;;;;;;;8.86;40.66;101805.38;5048826;28;19927;-73
2021/04/20 06:22:48;;;;;;;;;;;;;;;8.95;40.75;101816.72;5049824;28;20359;-73
2021/04/20 06:25:16;;;;;;;;;;;;;;;9.03;40.44;101814.47;5079335;28;20362;-72
2021/04/20 06:27:42;;;;;;;;;;;;;;;9.07;40.73;101807.47;5052218;28;19913;-73
2021/04/20 06:30:08;;;;;;;;;;;;;;;9.14;40.58;101810.09;5052274;28;19996;-73
2021/04/20 06:32:37;;;;;;;;;;;;;;;9.21;40.44;101805.31;5045259;28;19913;-75
2021/04/20 06:35:03;;;;;;;;;;;;;;;9.27;40.21;101808.97;5046013;28;20344;-75
2021/04/20 06:37:28;;;;;;;;;;;;;;;9.32;40.60;101807.19;5081249;28;20003;-75
2021/04/20 06:42:28;;;;;;;;;;;;;;;9.46;40.29;101807.75;4972764;28;19948;-69
2021/04/20 06:45:26;;;;;;;;;;;;;;;9.58;40.15;101806.91;5014853;28;19959;-71
2021/04/20 06:47:55;;;;;;;;;;;;;;;9.73;39.99;101810.72;4985511;28;19923;-71
2021/04/20 06:50:21;;;;;;;;;;;;;;;9.87;40.01;101802.28;5033447;28;19917;-71
2021/04/20 06:52:58;;;;;;;;;;;;;;;9.99;40.21;101797.59;5030382;28;19931;-73
2021/04/20 06:55:42;;;;;;;;;;;;;;;10.09;39.98;101795.03;5017906;28;19925;-71
2021/04/20 06:58:08;;;;;;;;;;;;;;;10.18;39.96;101800.94;5030482;28;20003;-71
2021/04/20 07:00:41;;;;;;;;;;;;;;;10.26;39.62;101794.22;5021832;28;19917;-71
2021/04/20 07:03:10;;;;;;;;;;;;;;;10.38;39.80;101798.56;5033535;28;19913;-71
2021/04/20 07:05:39;;;;;;;;;;;;;;;10.45;39.64;101798.44;5032631;28;19909;-72
2021/04/20 07:08:16;;;;;;;;;;;;;;;10.53;39.39;101792.56;5034590;28;19948;-71
2021/04/20 07:10:44;;;;;;;;;;;;;;;10.62;39.42;101792.97;5034999;28;20004;-72
2021/04/20 07:13:10;;;;;;;;;;;;;;;10.71;39.70;101788.72;5034026;28;19928;-71
2021/04/20 07:15:41;;;;;;;;;;;;;;;10.82;39.59;101786.97;5015774;28;19971;-71
2021/04/20 07:18:09;;;;;;;;;;;;;;;10.92;39.35;101791.75;5015550;28;19967;-83
2021/04/20 07:20:37;;;;;;;;;;;;;;;10.96;39.07;101787.44;5034100;28;19955;-78
2021/04/20 07:23:02;;;;;;;;;;;;;;;11.06;39.24;101788.41;5033545;28;19998;-71
2021/04/20 07:25:51;;;;;;;;;;;;;;;11.15;39.01;101785.22;5032296;28;19913;-71
2021/04/20 07:28:35;;;;;;;;;;;;;;;11.24;39.04;101790.00;4983798;28;19950;-71
2021/04/20 07:31:06;;;;;;;;;;;;;;;11.37;38.85;101783.31;5035668;28;19913;-71
2021/04/20 07:33:46;;;;;;;;;;;;;;;11.44;38.74;101781.22;5031868;28;20394;-71
2021/04/20 07:36:30;;;;;;;;;;;;;;;11.51;38.68;101779.16;5032653;28;19924;-71
2021/04/20 07:38:55;;;;;;;;;;;;;;;11.63;38.62;101778.16;5033251;28;19967;-72
2021/04/20 07:41:23;;;;;;;;;;;;;;;11.70;38.42;101776.91;5031778;28;20352;-72
2021/04/20 07:44:02;;;;;;;;;;;;;;;11.79;38.42;101771.78;5033136;28;19917;-71
2021/04/20 07:46:30;;;;;;;;;;;;;;;11.93;38.15;101775.78;5026200;28;19913;-71
2021/04/20 07:48:58;;;;;;;;;;;;;;;11.96;38.20;101766.25;5014235;28;20388;-71
2021/04/20 07:51:36;;;;;;;;;;;;;;;12.03;38.08;101764.13;5014690;28;19948;-71
2021/04/20 07:54:12;;;;;;;;;;;;;;;12.15;38.09;101759.31;5013528;28;19944;-71
2021/04/20 07:56:59;;;;;;;;;;;;;;;12.31;37.50;101765.72;5011756;28;20366;-70
2021/04/20 07:59:32;;;;;;;;;;;;;;;12.49;37.45;101749.97;5014020;28;19932;-71
2021/04/20 08:02:02;;;;;;;;;;;;;;;12.63;37.12;101759.38;5032271;28;19968;-71
2021/04/20 08:04:34;;;;;;;;;;;;;;;12.76;36.90;101758.91;5030487;28;19928;-71
2021/04/20 08:07:04;;;;;;;;;;;;;;;12.89;36.55;101755.72;5021438;28;19912;-72
2021/04/20 08:09:29;;;;;;;;;;;;;;;12.99;36.33;101760.41;5042370;28;19913;-72
2021/04/20 08:11:59;;;;;;;;;;;;;;;13.10;36.03;101751.16;5018343;28;19967;-71
2021/04/20 08:14:27;;;;;;;;;;;;;;;13.25;35.65;101752.31;5018109;28;19924;-72
2021/04/20 08:16:53;;;;;;;;;;;;;;;13.36;35.61;101753.19;5028211;28;19972;-81
2021/04/20 08:19:38;;;;;;;;;;;;;;;13.43;35.22;101749.13;5032751;28;19944;-74
2021/04/20 08:22:04;;;;;;;;;;;;;;;13.54;34.95;101744.50;5014387;28;19913;-72
2021/04/20 08:24:50;;;;;;;;;;;;;;;13.63;34.95;101751.09;5033948;28;19909;-71
2021/04/20 08:27:18;;;;;;;;;;;;;;;13.75;35.06;101750.84;5000677;28;20274;-71
2021/04/20 08:29:44;;;;;;;;;;;;;;;13.84;34.96;101749.22;5014549;28;19963;-72
2021/04/20 08:32:13;;;;;;;;;;;;;;;13.90;34.66;101748.13;5031936;28;19948;-72
2021/04/20 08:34:45;;;;;;;;;;;;;;;13.96;34.82;101738.78;5015019;28;19939;-71
2021/04/20 08:37:16;;;;;;;;;;;;;;;14.01;34.70;101740.72;5030398;28;20365;-72
2021/04/20 08:40:00;;;;;;;;;;;;;;;14.11;34.71;101738.00;5014814;28;19924;-72
2021/04/20 08:42:31;;;;;;;;;;;;;;;14.19;34.75;101733.88;5028993;28;19917;-72
2021/04/20 08:45:01;;;;;;;;;;;;;;;14.32;34.65;101735.22;5031871;28;19950;-72
2021/04/20 08:47:45;;;;;;;;;;;;;;;14.40;34.58;101735.50;5019154;28;20460;-73
2021/04/20 08:50:14;;;;;;;;;;;;;;;14.53;34.63;101734.13;5031671;28;20373;-72
2021/04/20 08:52:48;;;;;;;;;;;;;;;14.61;34.73;101736.31;4998479;28;19940;-72
2021/04/20 08:55:22;;;;;;;;;;;;;;;14.69;34.87;101729.44;5021299;28;20292;-72
2021/04/20 08:58:07;;;;;;;;;;;;;;;14.75;34.66;101730.25;5030683;28;19920;-73
2021/04/20 09:00:44;;;;;;;;;;;;;;;14.81;34.54;101723.63;5031184;28;20274;-75
2021/04/20 09:03:41;;;;;;;;;;;;;;;14.84;34.54;101728.56;5031579;28;20003;-72
2021/04/20 09:06:07;;;;;;;;;;;;;;;14.58;34.89;101717.66;4976528;28;20377;-73
2021/04/20 09:08:40;;;;;;;;;;;;;;;14.54;34.92;101719.31;5014726;28;19913;-72
2021/04/20 09:11:38;;;;;;;;;;;;;;;14.50;34.98;101718.19;5013162;28;19943;-72
2021/04/20 09:14:06;;;;;;;;;;;;;;;14.67;35.09;101714.34;4972928;28;19940;-73
2021/04/20 09:16:33;;;;;;;;;;;;;;;14.71;34.79;101724.50;5031164;28;19916;-72
2021/04/20 09:18:59;;;;;;;;;;;;;;;14.65;34.89;101722.88;5031019;28;19925;-72
2021/04/20 09:21:30;;;;;;;;;;;;;;;14.69;34.73;101720.38;5031024;28;19913;-72
2021/04/20 09:24:01;;;;;;;;;;;;;;;14.62;34.95;101717.91;5027631;28;19913;-72
2021/04/20 09:26:29;;;;;;;;;;;;;;;14.50;35.14;101718.19;5013287;28;19920;-72
2021/04/20 09:28:57;;;;;;;;;;;;;;;14.36;35.18;101717.94;5031995;28;19920;-72
2021/04/20 09:31:22;;;;;;;;;;;;;;;14.27;35.73;101721.50;5016998;28;19913;-72
2021/04/20 09:33:51;;;;;;;;;;;;;;;14.07;36.06;101719.59;5018071;28;19924;-72
2021/04/20 09:36:17;;;;;;;;;;;;;;;13.85;35.96;101712.47;5030279;28;20066;-72
2021/04/20 09:38:43;;;;;;;;;;;;;;;13.87;36.04;101712.22;5018821;28;19944;-72
2021/04/20 09:41:08;;;;;;;;;;;;;;;14.01;36.24;101710.56;5031502;28;19983;-72
2021/04/20 09:43:39;;;;;;;;;;;;;;;14.10;36.58;101708.09;5015811;28;20329;-72
2021/04/20 09:46:09;;;;;;;;;;;;;;;14.12;36.79;101709.47;5016614;28;19913;-72
2021/04/20 09:48:44;;;;;;;;;;;;;;;14.12;36.99;101711.38;5015759;28;20027;-72
2021/04/20 09:51:13;;;;;;;;;;;;;;;14.05;36.71;101714.41;5032675;28;20377;-72
2021/04/20 09:53:49;;;;;;;;;;;;;;;13.94;36.84;101710.84;5015607;28;19968;-72
2021/04/20 09:56:33;;;;;;;;;;;;;;;13.99;36.82;101699.03;5016106;28;19968;-72
2021/04/20 09:58:59;;;;;;;;;;;;;;;13.92;36.90;101684.81;5035483;28;20104;-72
2021/04/20 10:01:32;;;;;;;;;;;;;;;13.95;37.20;101700.69;5013950;28;20095;-72
2021/04/20 10:03:58;;;;;;;;;;;;;;;14.04;37.30;101688.06;5016405;28;19912;-72
2021/04/20 10:06:39;;;;;;;;;;;;;;;14.08;37.83;101686.44;5047304;28;19913;-72
2021/04/20 10:09:24;;;;;;;;;;;;;;;14.23;38.03;101684.78;5031731;28;19913;-73
2021/04/20 10:12:08;;;;;;;;;;;;;;;14.33;38.04;101684.75;5032853;28;19913;-73
2021/04/20 10:14:52;;;;;;;;;;;;;;;14.37;38.25;101677.59;5036508;28;19925;-74
2021/04/20 10:17:19;;;;;;;;;;;;;;;14.36;38.27;101673.22;5017865;28;20000;-73
2021/04/20 10:19:57;;;;;;;;;;;;;;;14.31;38.46;101670.50;5034055;28;19913;-74
2021/04/20 10:22:40;;;;;;;;;;;;;;;14.40;38.38;101675.16;5029756;28;19973;-74
2021/04/20 10:25:12;;;;;;;;;;;;;;;14.54;38.02;101664.44;5038983;28;19913;-81
2021/04/20 10:27:37;;;;;;;;;;;;;;;14.68;37.78;101661.09;5035327;28;19909;-82
2021/04/20 10:30:06;;;;;;;;;;;;;;;14.75;37.63;101661.63;5038876;28;20258;-82
2021/04/20 10:32:32;;;;;;;;;;;;;;;14.67;37.66;101657.53;5004678;28;19917;-83
2021/04/20 10:34:58;;;;;;;;;;;;;;;14.68;37.79;101667.41;5014003;28;19940;-82
2021/04/20 10:37:35;;;;;;;;;;;;;;;14.71;37.95;101655.88;5024172;28;19966;-82
2021/04/20 10:40:00;;;;;;;;;;;;;;;14.81;37.88;101658.59;5020697;28;20048;-82
2021/04/20 10:42:26;;;;;;;;;;;;;;;14.81;37.82;101658.59;5038022;28;19917;-82
2021/04/20 10:44:51;;;;;;;;;;;;;;;14.68;37.76;101658.34;5018008;28;19935;-82
2021/04/20 10:47:18;;;;;;;;;;;;;;;14.56;37.72;101662.22;5023128;28;19913;-83
2021/04/20 10:49:44;;;;;;;;;;;;;;;14.35;37.71;101655.09;5016691;28;19917;-81
2021/04/20 10:52:10;;;;;;;;;;;;;;;14.23;38.14;101641.72;5017456;28;20273;-81
2021/04/20 10:54:38;;;;;;;;;;;;;;;14.35;38.37;101646.88;5010487;28;19924;-81
2021/04/20 10:57:03;;;;;;;;;;;;;;;14.45;38.34;101641.38;5036315;28;19909;-81
2021/04/20 10:59:32;;;;;;;;;;;;;;;14.49;38.21;101645.22;5031163;28;20278;-80
2021/04/20 11:01:59;;;;;;;;;;;;;;;14.34;37.97;101645.25;5015229;28;19921;-80
2021/04/20 11:04:26;;;;;;;;;;;;;;;14.19;38.19;101635.97;5026105;28;19914;-83
2021/04/20 11:07:11;;;;;;;;;;;;;;;14.25;38.75;101633.22;5032371;28;20385;-83
2021/04/20 11:09:36;;;;;;;;;;;;;;;14.37;39.20;101628.22;5019268;28;19913;-82
2021/04/20 11:12:31;;;;;;;;;;;;;;;14.51;39.00;101625.72;5042458;28;19927;-83
2021/04/20 11:14:56;;;;;;;;;;;;;;;14.44;39.11;101626.03;5020613;28;19995;-82
2021/04/20 11:17:26;;;;;;;;;;;;;;;14.79;38.75;101614.13;5023343;28;19913;-83
2021/04/20 11:20:00;;;;;;;;;;;;;;;15.15;38.27;101613.09;5030096;28;19932;-83
2021/04/20 11:22:25;;;;;;;;;;;;;;;15.24;37.84;101608.63;5008582;28;19913;-83
2021/04/20 11:24:53;;;;;;;;;;;;;;;15.45;37.57;101607.38;5013187;28;19939;-82
2021/04/20 11:27:19;;;;;;;;;;;;;;;15.54;37.48;101605.66;5017179;28;19928;-83
2021/04/20 11:30:03;;;;;;;;;;;;;;;15.59;37.28;101603.97;5033861;28;19999;-82
2021/04/20 11:32:28;;;;;;;;;;;;;;;15.63;37.12;101607.78;5031666;28;19944;-82
2021/04/20 11:34:54;;;;;;;;;;;;;;;15.80;37.34;101607.41;5022902;28;19952;-82
2021/04/20 11:37:23;;;;;;;;;;;;;;;15.79;37.69;101600.25;5012146;28;19913;-83
2021/04/20 11:39:50;;;;;;;;;;;;;;;15.71;37.76;101604.44;5030673;28;19996;-82
2021/04/20 11:42:16;;;;;;;;;;;;;;;15.68;37.60;101599.50;5047398;28;19925;-83
2021/04/20 11:44:42;;;;;;;;;;;;;;;15.53;37.87;101604.03;5056807;28;19909;-83
2021/04/20 11:47:08;;;;;;;;;;;;;;;15.51;38.13;101595.22;5027321;28;19913;-80
2021/04/20 11:49:33;;;;;;;;;;;;;;;15.51;38.46;101592.50;4999680;28;19988;-82
2021/04/20 11:52:02;;;;;;;;;;;;;;;15.41;38.65;101586.25;5013233;28;19956;-75
2021/04/20 11:54:32;;;;;;;;;;;;;;;15.32;38.78;101586.03;5040450;28;20015;-74
2021/04/20 11:57:01;;;;;;;;;;;;;;;15.46;38.61;101586.22;5018483;28;20436;-75
2021/04/20 11:59:27;;;;;;;;;;;;;;;15.67;38.30;101578.63;5012722;28;19913;-74
2021/04/20 12:01:53;;;;;;;;;;;;;;;15.83;37.88;101580.16;5011654;28;19940;-75
2021/04/20 12:04:24;;;;;;;;;;;;;;;15.89;37.98;101578.97;5015898;28;19953;-81
2021/04/20 12:06:49;;;;;;;;;;;;;;;16.10;38.02;101584.28;5029970;28;20350;-74
2021/04/20 12:09:15;;;;;;;;;;;;;;;16.27;37.63;101568.13;5012338;28;19912;-76
2021/04/20 12:11:40;;;;;;;;;;;;;;;16.52;37.23;101577.19;5028621;28;19936;-75
2021/04/20 12:14:07;;;;;;;;;;;;;;;16.70;37.33;101565.41;5050826;28;20042;-75
2021/04/20 12:16:33;;;;;;;;;;;;;;;16.89;36.90;101568.19;5046993;28;19924;-75
2021/04/20 12:18:58;;;;;;;;;;;;;;;17.01;36.91;101562.22;5026867;28;19923;-75
2021/04/20 12:21:25;;;;;;;;;;;;;;;17.38;36.88;101555.88;5025580;28;19912;-75
2021/04/20 12:23:51;;;;;;;;;;;;;;;17.66;37.00;101550.44;5017987;28;19921;-75
2021/04/20 12:26:17;;;;;;;;;;;;;;;17.79;36.69;101548.84;5013358;28;19917;-75
2021/04/20 12:28:44;;;;;;;;;;;;;;;17.91;36.75;101547.22;5012949;28;19913;-75
2021/04/20 12:31:09;;;;;;;;;;;;;;;17.91;36.81;101551.94;5010331;28;19956;-75
2021/04/20 12:33:35;;;;;;;;;;;;;;;17.89;36.98;101552.22;5029539;28;19972;-75
2021/04/20 12:36:00;;;;;;;;;;;;;;;18.21;36.94;101546.94;5016580;28;19959;-75
2021/04/20 12:38:30;;;;;;;;;;;;;;;18.70;36.41;101540.63;5031585;28;20354;-75
2021/04/20 12:40:56;;;;;;;;;;;;;;;18.63;36.08;101538.31;5016613;28;19960;-75
2021/04/20 12:43:22;;;;;;;;;;;;;;;18.59;36.10;101537.28;5014541;28;19967;-73
2021/04/20 12:45:47;;;;;;;;;;;;;;;19.10;35.86;101537.25;5027266;28;20317;-73
2021/04/20 12:48:12;;;;;;;;;;;;;;;19.58;35.11;101531.09;5030346;28;20369;-73
2021/04/20 12:50:42;;;;;;;;;;;;;;;19.59;34.99;101518.88;5028921;28;19987;-74